createdAt,value
2019-03-30T00:01:57.101Z,64.10
2019-03-30T00:04:27.279Z,64.20
2019-03-30T00:06:57.318Z,64.00
2019-03-30T00:09:27.519Z,64.10
2019-03-30T00:11:57.923Z,64.10
2019-03-30T00:14:28.144Z,64.20
2019-03-30T00:16:58.196Z,64.30
2019-03-30T00:19:34.813Z,64.40
2019-03-30T00:21:59.918Z,64.60
2019-03-30T00:24:29.943Z,64.60
2019-03-30T00:27:00.002Z,64.60
2019-03-30T00:29:30.103Z,64.60
2019-03-30T00:32:00.479Z,64.60
2019-03-30T00:34:30.563Z,64.80
2019-03-30T00:37:00.591Z,65.00
2019-03-30T00:39:31.122Z,65.20
2019-03-30T00:42:01.235Z,65.20
2019-03-30T00:44:31.386Z,65.40
2019-03-30T00:47:01.819Z,65.50
2019-03-30T00:49:32.078Z,65.60
2019-03-30T00:52:02.163Z,65.50
2019-03-30T00:54:32.275Z,65.40
2019-03-30T00:57:02.610Z,65.40
2019-03-30T00:59:32.682Z,65.40
2019-03-30T01:02:02.797Z,65.30
2019-03-30T01:04:32.770Z,65.50
2019-03-30T01:07:02.889Z,65.40
2019-03-30T01:09:32.905Z,65.40
2019-03-30T01:12:03.227Z,64.90
2019-03-30T01:14:33.256Z,65.20
2019-03-30T01:17:03.547Z,65.40
2019-03-30T01:19:33.656Z,65.80
2019-03-30T01:22:03.686Z,65.80
2019-03-30T01:24:33.820Z,65.20
2019-03-30T01:27:03.871Z,65.40
2019-03-30T01:29:33.952Z,65.70
2019-03-30T01:32:04.048Z,65.80
2019-03-30T01:34:34.190Z,65.70
2019-03-30T01:37:04.183Z,65.60
2019-03-30T01:39:36.312Z,65.90
2019-03-30T01:42:06.771Z,67.10
2019-03-30T01:44:36.980Z,67.20
2019-03-30T01:47:07.055Z,67.60
2019-03-30T01:49:37.200Z,67.80
2019-03-30T01:52:07.183Z,67.90
2019-03-30T01:54:37.769Z,68.30
2019-03-30T01:57:08.949Z,68.00
2019-03-30T01:59:47.543Z,68.10
2019-03-30T02:02:17.638Z,68.10
2019-03-30T02:04:47.624Z,68.20
2019-03-30T02:07:17.731Z,68.20
2019-03-30T02:09:47.787Z,68.20
2019-03-30T02:12:17.952Z,68.30
2019-03-30T02:14:48.025Z,68.40
2019-03-30T02:17:20.109Z,68.50
2019-03-30T02:19:49.927Z,68.60
2019-03-30T02:22:20.002Z,68.50
2019-03-30T02:24:50.182Z,68.40
2019-03-30T02:27:20.227Z,68.30
2019-03-30T02:29:50.246Z,68.60
2019-03-30T02:32:23.461Z,68.40
2019-03-30T02:34:56.273Z,68.30
2019-03-30T02:37:48.471Z,68.00
2019-03-30T02:40:18.439Z,68.20
2019-03-30T02:42:55.678Z,68.60
2019-03-30T02:45:25.695Z,68.10
2019-03-30T02:47:55.692Z,68.20
2019-03-30T02:50:25.841Z,68.40
2019-03-30T02:52:56.042Z,68.40
2019-03-30T02:55:26.174Z,68.50
2019-03-30T02:58:02.431Z,68.20
2019-03-30T03:00:43.599Z,68.30
2019-03-30T03:03:16.510Z,68.40
2019-03-30T03:05:52.312Z,68.50
2019-03-30T03:08:25.323Z,68.60
2019-03-30T03:10:55.365Z,68.60
2019-03-30T03:13:25.300Z,68.60
2019-03-30T03:15:55.348Z,68.90
2019-03-30T03:18:25.876Z,68.70
2019-03-30T03:21:07.466Z,68.70
2019-03-30T03:23:27.667Z,68.80
2019-03-30T03:25:58.202Z,69.10
2019-03-30T03:28:28.255Z,69.30
2019-03-30T03:30:58.224Z,69.40
2019-03-30T03:33:28.285Z,69.50
2019-03-30T03:35:58.208Z,69.10
2019-03-30T03:38:28.224Z,69.20
2019-03-30T03:40:58.285Z,69.30
2019-03-30T03:43:28.452Z,69.80
2019-03-30T03:45:58.476Z,70.10
2019-03-30T03:48:28.515Z,69.80
2019-03-30T03:51:01.508Z,69.60
2019-03-30T03:53:32.865Z,69.90
2019-03-30T03:56:06.011Z,69.70
2019-03-30T03:58:37.179Z,69.70
2019-03-30T04:01:07.252Z,69.80
2019-03-30T04:03:37.669Z,70.10
2019-03-30T04:06:09.657Z,70.10
2019-03-30T04:08:41.814Z,70.30
2019-03-30T04:11:13.414Z,70.50
2019-03-30T04:13:47.123Z,70.30
2019-03-30T04:16:17.320Z,70.90
2019-03-30T04:18:48.622Z,71.00
2019-03-30T04:21:18.840Z,70.80
2019-03-30T04:23:55.684Z,70.70
2019-03-30T04:26:25.908Z,70.50
2019-03-30T04:28:57.887Z,70.80
2019-03-30T04:31:34.462Z,70.80
2019-03-30T04:34:04.847Z,70.90
2019-03-30T04:36:35.044Z,70.70
2019-03-30T04:39:05.689Z,71.00
2019-03-30T04:41:38.120Z,71.00
2019-03-30T04:44:08.435Z,70.80
2019-03-30T04:46:41.314Z,71.00
2019-03-30T04:49:13.733Z,71.20
2019-03-30T04:51:56.560Z,71.30
2019-03-30T04:54:15.362Z,71.30
2019-03-30T04:56:45.381Z,71.20
2019-03-30T04:59:15.493Z,71.60
2019-03-30T05:01:45.519Z,72.10
2019-03-30T05:04:15.773Z,72.10
2019-03-30T05:06:46.012Z,72.20
2019-03-30T05:09:16.704Z,72.30
2019-03-30T05:11:46.991Z,72.10
2019-03-30T05:14:17.029Z,71.90
2019-03-30T05:16:47.926Z,72.00
2019-03-30T05:19:18.710Z,72.20
2019-03-30T05:21:48.693Z,72.30
2019-03-30T05:24:18.729Z,72.30
2019-03-30T05:26:48.718Z,72.20
2019-03-30T05:29:18.781Z,72.20
2019-03-30T05:31:51.421Z,72.40
2019-03-30T05:34:35.557Z,72.20
2019-03-30T05:37:07.826Z,72.30
2019-03-30T05:39:46.595Z,72.50
2019-03-30T05:42:19.470Z,72.90
2019-03-30T05:44:51.306Z,72.80
2019-03-30T05:47:21.358Z,73.30
2019-03-30T05:49:54.472Z,73.30
2019-03-30T05:52:36.926Z,73.30
2019-03-30T05:55:11.543Z,73.00
2019-03-30T05:57:41.697Z,72.70
2019-03-30T06:00:14.556Z,73.20
2019-03-30T06:02:45.420Z,72.90
2019-03-30T06:05:27.538Z,73.20
2019-03-30T06:07:50.396Z,73.00
2019-03-30T06:10:23.412Z,73.40
2019-03-30T06:13:01.149Z,73.30
2019-03-30T06:15:42.824Z,73.10
2019-03-30T06:18:56.488Z,72.70
2019-03-30T06:21:28.007Z,72.50
2019-03-30T06:27:43.126Z,72.70
2019-03-30T06:30:25.488Z,72.90
2019-03-30T06:32:55.502Z,73.30
2019-03-30T06:35:31.560Z,72.80
2019-03-30T06:38:15.161Z,72.70
2019-03-30T06:40:45.411Z,73.00
2019-03-30T06:43:15.534Z,73.10
2019-03-30T06:45:45.501Z,73.10
2019-03-30T06:48:15.618Z,73.60
2019-03-30T06:50:46.541Z,73.30
2019-03-30T06:53:16.775Z,72.90
2019-03-30T06:55:46.997Z,72.70
2019-03-30T06:58:17.125Z,73.50
2019-03-30T07:00:50.256Z,72.70
2019-03-30T07:04:21.702Z,72.80
2019-03-30T07:10:26.035Z,73.20
2019-03-30T07:13:10.561Z,71.80
2019-03-30T07:16:02.437Z,71.70
2019-03-30T07:18:38.898Z,70.30
2019-03-30T07:21:30.583Z,69.80
2019-03-30T07:28:04.331Z,70.30
2019-03-30T07:30:40.227Z,68.50
2019-03-30T07:40:10.853Z,67.50
2019-03-30T07:43:35.790Z,67.10
2019-03-30T07:46:25.257Z,67.20
2019-03-30T07:49:12.645Z,67.50
2019-03-30T07:51:50.319Z,67.60
2019-03-30T07:54:27.363Z,66.80
2019-03-30T07:57:05.378Z,66.90
2019-03-30T07:59:31.531Z,66.60
2019-03-30T08:02:15.838Z,66.60
2019-03-30T08:07:57.419Z,66.60
2019-03-30T08:10:37.601Z,66.50
2019-03-30T08:13:08.412Z,65.60
2019-03-30T08:15:38.823Z,65.70
2019-03-30T08:18:09.112Z,65.80
2019-03-30T08:20:42.131Z,65.70
2019-03-30T08:23:21.060Z,64.70
2019-03-30T08:26:00.840Z,64.90
2019-03-30T08:31:23.136Z,64.70
2019-03-30T08:33:53.217Z,64.30
2019-03-30T08:36:23.440Z,64.50
2019-03-30T08:38:53.529Z,62.20
2019-03-30T08:41:23.742Z,62.30
2019-03-30T08:43:53.734Z,61.90
2019-03-30T08:46:23.917Z,61.90
2019-03-30T08:48:54.468Z,61.70
2019-03-30T08:51:24.958Z,62.20
2019-03-30T08:53:55.215Z,61.50
2019-03-30T08:56:27.988Z,61.10
2019-03-30T08:58:57.129Z,61.70
2019-03-30T09:01:27.286Z,60.30
2019-03-30T09:03:57.641Z,59.90
2019-03-30T09:06:32.038Z,60.40
2019-03-30T09:09:09.267Z,60.40
2019-03-30T09:11:43.438Z,59.40
2019-03-30T09:14:17.524Z,58.70
2019-03-30T09:16:47.623Z,58.20
2019-03-30T09:19:18.195Z,59.30
2019-03-30T09:21:52.793Z,61.10
2019-03-30T09:24:22.867Z,58.80
2019-03-30T09:26:53.767Z,57.80
2019-03-30T09:29:24.016Z,58.00
2019-03-30T09:31:55.361Z,57.40
2019-03-30T09:34:26.407Z,56.70
2019-03-30T09:36:56.436Z,56.90
2019-03-30T09:39:26.589Z,57.60
2019-03-30T09:41:56.711Z,58.40
2019-03-30T09:44:26.874Z,57.50
2019-03-30T09:46:57.086Z,57.70
2019-03-30T09:49:27.096Z,57.90
2019-03-30T09:51:57.162Z,57.20
2019-03-30T09:54:28.200Z,60.00
2019-03-30T09:56:58.339Z,58.70
2019-03-30T09:59:28.564Z,57.50
2019-03-30T10:01:58.623Z,57.00
2019-03-30T10:04:28.814Z,57.20
2019-03-30T10:06:59.318Z,56.70
2019-03-30T10:09:29.437Z,55.90
2019-03-30T10:11:59.535Z,54.10
2019-03-30T10:14:29.642Z,53.70
2019-03-30T10:16:59.710Z,52.30
2019-03-30T10:19:29.823Z,54.70
2019-03-30T10:22:04.046Z,53.50
2019-03-30T10:24:38.417Z,52.20
2019-03-30T10:27:05.946Z,52.40
2019-03-30T10:29:36.128Z,53.50
2019-03-30T10:32:06.376Z,53.60
2019-03-30T10:34:39.478Z,51.80
2019-03-30T10:37:08.264Z,50.70
2019-03-30T10:39:38.806Z,52.10
2019-03-30T10:42:08.914Z,50.60
2019-03-30T10:44:39.021Z,51.20
2019-03-30T10:47:09.138Z,50.80
2019-03-30T10:49:39.253Z,50.90
2019-03-30T10:52:09.369Z,50.80
2019-03-30T10:54:52.140Z,50.30
2019-03-30T10:57:11.205Z,49.70
2019-03-30T10:59:42.311Z,50.00
2019-03-30T11:02:23.668Z,50.80
2019-03-30T11:04:53.695Z,50.70
2019-03-30T11:07:32.122Z,51.10
2019-03-30T11:10:19.934Z,49.10
2019-03-30T11:12:43.659Z,49.20
2019-03-30T11:15:13.782Z,48.30
2019-03-30T11:17:43.862Z,50.00
2019-03-30T11:20:13.963Z,49.60
2019-03-30T11:22:44.064Z,49.50
2019-03-30T11:25:14.184Z,49.60
2019-03-30T11:27:44.417Z,49.00
2019-03-30T11:30:14.486Z,49.60
2019-03-30T11:32:44.543Z,48.00
2019-03-30T11:35:14.649Z,47.40
2019-03-30T11:37:44.699Z,49.10
2019-03-30T11:40:14.833Z,46.90
2019-03-30T11:42:44.895Z,47.40
2019-03-30T11:45:14.968Z,47.40
2019-03-30T11:47:45.419Z,47.70
2019-03-30T11:50:19.590Z,46.40
2019-03-30T11:52:49.671Z,48.20
2019-03-30T11:55:22.146Z,46.50
2019-03-30T11:57:52.295Z,46.70
2019-03-30T12:00:22.461Z,45.50
2019-03-30T12:02:53.047Z,45.90
2019-03-30T12:05:23.063Z,45.20
2019-03-30T12:07:53.112Z,45.20
2019-03-30T12:10:23.270Z,45.80
2019-03-30T12:12:53.324Z,45.40
2019-03-30T12:15:24.497Z,45.80
2019-03-30T12:17:54.558Z,44.20
2019-03-30T12:20:24.617Z,44.80
2019-03-30T12:22:54.628Z,44.50
2019-03-30T12:25:34.750Z,44.40
2019-03-30T12:27:56.863Z,43.00
2019-03-30T12:30:26.943Z,42.40
2019-03-30T12:32:57.110Z,42.20
2019-03-30T12:35:27.175Z,41.80
2019-03-30T12:37:57.323Z,42.50
2019-03-30T12:40:27.412Z,40.90
2019-03-30T12:42:57.571Z,41.70
2019-03-30T12:45:27.636Z,41.80
2019-03-30T12:47:57.714Z,40.50
2019-03-30T12:50:27.775Z,40.20
2019-03-30T12:52:57.821Z,39.10
2019-03-30T12:55:27.948Z,38.30
2019-03-30T12:57:57.955Z,39.00
2019-03-30T13:00:28.055Z,38.80
2019-03-30T13:03:00.150Z,38.70
2019-03-30T13:05:30.243Z,38.30
2019-03-30T13:08:00.322Z,38.20
2019-03-30T13:10:30.436Z,38.10
2019-03-30T13:13:00.643Z,36.00
2019-03-30T13:15:31.544Z,37.50
2019-03-30T13:18:01.740Z,35.80
2019-03-30T13:20:31.850Z,35.90
2019-03-30T13:23:02.028Z,36.00
2019-03-30T13:25:32.163Z,36.90
2019-03-30T13:28:02.351Z,36.70
2019-03-30T13:30:32.438Z,36.40
2019-03-30T13:33:09.591Z,36.40
2019-03-30T13:35:40.265Z,36.70
2019-03-30T13:38:10.365Z,36.80
2019-03-30T13:40:40.468Z,37.70
2019-03-30T13:43:10.619Z,36.70
2019-03-30T13:45:40.674Z,37.10
2019-03-30T13:48:11.017Z,37.10
2019-03-30T13:50:41.086Z,37.20
2019-03-30T13:53:11.167Z,36.90
2019-03-30T13:55:41.171Z,35.90
2019-03-30T13:58:11.251Z,36.60
2019-03-30T14:00:41.350Z,36.10
2019-03-30T14:03:11.591Z,35.90
2019-03-30T14:05:41.842Z,37.70
2019-03-30T14:08:12.001Z,36.20
2019-03-30T14:10:42.366Z,35.60
2019-03-30T14:13:12.434Z,35.00
2019-03-30T14:15:43.111Z,35.20
2019-03-30T14:18:13.191Z,36.90
2019-03-30T14:20:43.264Z,37.10
2019-03-30T14:23:13.312Z,36.00
2019-03-30T14:25:43.398Z,32.70
2019-03-30T14:28:13.561Z,35.10
2019-03-30T14:31:02.347Z,32.50
2019-03-30T14:33:33.541Z,33.10
2019-03-30T14:36:03.581Z,32.40
2019-03-30T14:38:33.746Z,33.00
2019-03-30T14:41:04.129Z,31.90
2019-03-30T14:43:34.231Z,31.70
2019-03-30T14:46:04.257Z,33.60
2019-03-30T14:48:34.367Z,33.40
2019-03-30T14:51:04.370Z,34.60
2019-03-30T14:53:34.383Z,33.80
2019-03-30T14:56:04.420Z,32.20
2019-03-30T14:58:34.572Z,34.30
2019-03-30T15:01:05.061Z,33.20
2019-03-30T15:03:35.120Z,28.20
2019-03-30T15:06:07.102Z,27.10
2019-03-30T15:08:38.297Z,26.00
2019-03-30T15:11:08.295Z,26.20
2019-03-30T15:13:39.907Z,26.50
2019-03-30T15:16:09.968Z,26.30
2019-03-30T15:18:40.146Z,26.30
2019-03-30T15:21:10.252Z,26.70
2019-03-30T15:23:40.363Z,27.40
2019-03-30T15:26:10.458Z,28.20
2019-03-30T15:28:42.777Z,28.30
2019-03-30T15:31:12.175Z,28.40
2019-03-30T15:33:42.261Z,28.10
2019-03-30T15:36:12.334Z,28.40
2019-03-30T15:38:42.505Z,27.80
2019-03-30T15:41:12.656Z,26.80
2019-03-30T15:43:42.689Z,26.30
2019-03-30T15:46:14.422Z,26.30
2019-03-30T15:48:44.619Z,25.30
2019-03-30T15:51:14.675Z,23.40
2019-03-30T15:53:44.789Z,22.70
2019-03-30T15:56:14.939Z,22.50
2019-03-30T15:58:45.032Z,21.40
2019-03-30T16:01:15.207Z,21.10
2019-03-30T16:03:45.217Z,20.70
2019-03-30T16:06:15.415Z,21.20
2019-03-30T16:08:45.475Z,22.60
2019-03-30T16:11:15.667Z,23.70
2019-03-30T16:13:45.803Z,22.80
2019-03-30T16:16:16.003Z,24.70
2019-03-30T16:18:46.071Z,25.10
2019-03-30T16:21:16.234Z,25.40
2019-03-30T16:23:46.744Z,25.20
2019-03-30T16:26:17.032Z,26.60
2019-03-30T16:28:47.219Z,25.80
2019-03-30T16:31:17.639Z,25.70
2019-03-30T16:33:47.666Z,25.90
2019-03-30T16:36:17.717Z,23.90
2019-03-30T16:38:47.807Z,24.20
2019-03-30T16:41:17.847Z,24.80
2019-03-30T16:43:47.989Z,25.60
2019-03-30T16:46:18.044Z,26.40
2019-03-30T16:48:48.633Z,26.50
2019-03-30T16:51:18.715Z,26.40
2019-03-30T16:53:49.348Z,25.30
2019-03-30T16:56:19.340Z,23.80
2019-03-30T16:58:49.508Z,23.30
2019-03-30T17:01:19.735Z,24.80
2019-03-30T17:03:49.748Z,24.20
2019-03-30T17:06:19.744Z,25.00
2019-03-30T17:08:49.862Z,25.60
2019-03-30T17:11:19.879Z,26.30
2019-03-30T17:13:54.799Z,26.80
2019-03-30T17:16:24.944Z,27.80
2019-03-30T17:18:56.141Z,28.20
2019-03-30T17:21:26.220Z,28.20
2019-03-30T17:23:56.365Z,28.00
2019-03-30T17:26:26.427Z,28.50
2019-03-30T17:28:57.574Z,28.30
2019-03-30T17:31:27.629Z,28.80
2019-03-30T17:33:57.707Z,29.00
2019-03-30T17:36:28.850Z,29.30
2019-03-30T17:38:59.071Z,29.70
2019-03-30T17:41:29.231Z,29.90
2019-03-30T17:43:59.316Z,29.90
2019-03-30T17:46:29.459Z,30.00
2019-03-30T17:48:59.520Z,30.40
2019-03-30T17:51:29.745Z,30.20
2019-03-30T17:53:59.872Z,30.50
2019-03-30T17:56:29.956Z,31.20
2019-03-30T17:59:00.006Z,31.00
2019-03-30T18:01:30.156Z,31.90
2019-03-30T18:04:00.283Z,32.50
2019-03-30T18:06:31.007Z,34.00
2019-03-30T18:09:01.074Z,33.00
2019-03-30T18:11:31.263Z,33.60
2019-03-30T18:14:01.308Z,33.70
2019-03-30T18:16:31.511Z,33.80
2019-03-30T18:19:01.622Z,35.30
2019-03-30T18:21:31.832Z,36.90
2019-03-30T18:24:01.916Z,37.30
2019-03-30T18:26:32.103Z,36.80
2019-03-30T18:29:02.250Z,36.00
2019-03-30T18:31:32.440Z,38.20
2019-03-30T18:34:02.577Z,37.30
2019-03-30T18:36:33.112Z,36.90
2019-03-30T18:39:09.681Z,37.60
2019-03-30T18:41:37.388Z,37.70
2019-03-30T18:44:07.820Z,39.90
2019-03-30T18:46:37.953Z,39.60
2019-03-30T18:49:08.284Z,40.10
2019-03-30T18:51:38.730Z,39.20
2019-03-30T18:54:09.047Z,39.10
2019-03-30T18:56:39.164Z,39.20
2019-03-30T18:59:09.336Z,39.50
2019-03-30T19:01:39.459Z,40.40
2019-03-30T19:04:09.571Z,42.00
2019-03-30T19:06:40.139Z,42.50
2019-03-30T19:09:10.431Z,43.70
2019-03-30T19:11:40.937Z,43.00
2019-03-30T19:14:11.039Z,43.30
2019-03-30T19:16:41.623Z,44.30
2019-03-30T19:19:11.731Z,43.70
2019-03-30T19:21:42.010Z,43.90
2019-03-30T19:24:12.065Z,44.10
2019-03-30T19:26:42.624Z,44.70
2019-03-30T19:29:12.750Z,45.00
2019-03-30T19:31:42.815Z,45.10
2019-03-30T19:34:12.859Z,45.50
2019-03-30T19:36:42.878Z,46.00
2019-03-30T19:39:12.903Z,43.70
2019-03-30T19:41:42.880Z,44.70
2019-03-30T19:44:13.033Z,45.50
2019-03-30T19:46:43.019Z,45.80
2019-03-30T19:49:13.184Z,45.50
2019-03-30T19:51:43.282Z,45.40
2019-03-30T19:54:13.766Z,45.90
2019-03-30T19:56:44.331Z,46.20
2019-03-30T19:59:14.556Z,46.80
2019-03-30T20:01:44.719Z,47.00
2019-03-30T20:04:14.750Z,46.50
2019-03-30T20:06:44.819Z,46.20
2019-03-30T20:09:14.869Z,46.60
2019-03-30T20:11:45.670Z,47.50
2019-03-30T20:14:15.758Z,47.20
2019-03-30T20:16:45.877Z,47.40
2019-03-30T20:19:16.047Z,48.70
2019-03-30T20:21:46.074Z,47.60
2019-03-30T20:24:16.426Z,48.50
2019-03-30T20:26:46.440Z,47.70
2019-03-30T20:29:25.142Z,47.50
2019-03-30T20:31:48.431Z,46.80
2019-03-30T20:34:18.423Z,48.10
2019-03-30T20:36:48.595Z,47.40
2019-03-30T20:39:18.612Z,48.10
2019-03-30T20:41:49.045Z,48.50
2019-03-30T20:44:19.174Z,47.90
2019-03-30T20:46:49.288Z,48.60
2019-03-30T20:49:19.506Z,47.00
2019-03-30T20:51:49.693Z,49.40
2019-03-30T20:54:20.268Z,49.10
2019-03-30T20:56:50.459Z,49.50
2019-03-30T20:59:20.579Z,48.60
2019-03-30T21:01:50.747Z,49.60
2019-03-30T21:04:20.813Z,49.70
2019-03-30T21:06:50.922Z,50.00
2019-03-30T21:09:20.894Z,50.50
2019-03-30T21:11:50.942Z,49.70
2019-03-30T21:14:21.005Z,49.70
2019-03-30T21:16:51.096Z,49.30
2019-03-30T21:19:21.094Z,50.30
2019-03-30T21:21:51.235Z,51.10
2019-03-30T21:24:21.350Z,49.10
2019-03-30T21:26:51.338Z,51.20
2019-03-30T21:29:22.370Z,51.40
2019-03-30T21:31:52.451Z,50.90
2019-03-30T21:34:22.449Z,51.30
2019-03-30T21:36:52.851Z,51.80
2019-03-30T21:39:23.469Z,51.20
2019-03-30T21:41:53.484Z,51.40
2019-03-30T21:44:25.639Z,52.40
2019-03-30T21:46:55.955Z,51.40
2019-03-30T21:49:26.193Z,51.30
2019-03-30T21:51:56.338Z,52.40
2019-03-30T21:54:26.555Z,51.90
2019-03-30T21:56:56.624Z,53.10
2019-03-30T21:59:26.807Z,52.20
2019-03-30T22:01:56.809Z,52.00
2019-03-30T22:04:26.931Z,52.40
2019-03-30T22:06:56.986Z,53.20
2019-03-30T22:09:28.429Z,52.50
2019-03-30T22:11:58.471Z,53.30
2019-03-30T22:14:28.511Z,53.80
2019-03-30T22:16:58.576Z,53.20
2019-03-30T22:19:28.576Z,53.80
2019-03-30T22:21:58.555Z,54.00
2019-03-30T22:24:28.564Z,53.20
2019-03-30T22:26:58.603Z,53.20
2019-03-30T22:29:28.732Z,53.60
2019-03-30T22:31:58.881Z,53.00
2019-03-30T22:34:29.020Z,52.10
2019-03-30T22:37:01.348Z,53.00
2019-03-30T22:39:31.607Z,54.40
2019-03-30T22:42:01.803Z,54.10
2019-03-30T22:44:31.986Z,52.10
2019-03-30T22:47:02.359Z,54.10
2019-03-30T22:49:32.419Z,54.10
2019-03-30T22:52:02.506Z,54.10
2019-03-30T22:54:32.505Z,53.80
2019-03-30T22:57:02.545Z,53.00
2019-03-30T22:59:32.592Z,53.20
2019-03-30T23:02:02.651Z,54.30
2019-03-30T23:04:32.972Z,53.70
2019-03-30T23:07:03.146Z,53.80
2019-03-30T23:09:33.171Z,54.10
2019-03-30T23:12:03.271Z,54.60
2019-03-30T23:14:33.358Z,53.10
2019-03-30T23:17:03.487Z,54.60
2019-03-30T23:19:33.482Z,54.90
2019-03-30T23:22:03.557Z,54.30
2019-03-30T23:24:33.550Z,53.80
2019-03-30T23:27:03.727Z,54.80
2019-03-30T23:29:33.785Z,55.30
2019-03-30T23:32:03.826Z,55.00
2019-03-30T23:34:33.862Z,54.70
2019-03-30T23:37:03.877Z,54.70
2019-03-30T23:39:34.196Z,54.80
2019-03-30T23:42:04.234Z,55.30
2019-03-30T23:44:34.298Z,54.90
2019-03-30T23:47:04.308Z,55.50
2019-03-30T23:49:34.376Z,55.60
2019-03-30T23:52:04.498Z,55.70
2019-03-30T23:54:34.523Z,55.70
2019-03-30T23:57:04.564Z,55.80
2019-03-30T23:59:34.547Z,55.60
